SELT

Details ICAO SELT (LTX)
Name COTOPAXI INTL
Region Equador
Timezone America/Guayaquil (UTC-5.0)
Plans Departing 21
Arriving 28
Stats Elevation 9,205 ft / 2,806 m (AMSL)
Location -0.906834° -78.615800°
Runways 1
Magnetic Variation 3.425° W
Sunrise 2018-12-15 11:05:48 UTC / 2018-12-15 06:05:48 Local
Sunset 2018-12-15 23:16:11 UTC / 2018-12-15 18:16:11 Local
Advertisement - Login to hide

Runways

ID Width Length Bearing (true/mag) Surface Threshold Overrun Markings Lighting
18 148 ft / 45 m 12,187 ft / 3,715 m 184.29° / 187.71° ASPHALT 1,417 ft / 432 m 635 ft / 194 m PREC-APP EDGE THRESHOLD SALS REIL-OMNI
36 148 ft / 45 m 12,187 ft / 3,715 m 4.29° / 7.71° ASPHALT 0 ft / 0 m 310 ft / 94 m APP EDGE THRESHOLD

Approach Navaids

Runway Type Ident Frequency Range Bearing (true/mag) Slope Elevation
18 LOC-ILS ILA 108.70 MHz 18 nm / 33 km 184.29° / 187.71° - 9,117 ft / 2,779 m (AMSL)
18 GS ILA 108.70 MHz 10 nm / 19 km 184.58° / 188.00° 3.20° 9,172 ft / 2,796 m (AMSL)
18 DME ILA 108.70 MHz 18 nm / 33 km - - 9,116 ft / 2,779 m (AMSL)

Map

Weather


0- 5 10 15 20 25 30 35+ Temperature / °C

Clouds and Precipitation
Forecast for 2018-12-16 06:00 UTC. Updated an hour ago

Ground ~20,000 ft ~40,000 ft Winds

METAR

SELT 160400Z 20005KT 9999 FEW010 BKN030 11/09 Q1032

TAF

Not found

Frequencies

Ground 121.90 MHz LATACUNGA GND
Tower 118.50 MHz LATACUNGA APP/TWR
Warning: Do not use this data for real-world aviation or navigation. No guarantee of current accuracy is given.